createdAt,value
2022-12-05T00:01:25.011Z,9.05
2022-12-05T00:03:54.688Z,10.02
2022-12-05T00:06:22.531Z,5.07
2022-12-05T00:08:49.747Z,6.15
2022-12-05T00:11:19.350Z,4.30
2022-12-05T00:13:47.494Z,3.70
2022-12-05T00:16:17.234Z,4.72
2022-12-05T00:18:44.657Z,4.60
2022-12-05T00:21:20.556Z,4.75
2022-12-05T00:23:48.235Z,5.15
2022-12-05T00:26:15.823Z,4.43
2022-12-05T00:28:43.002Z,6.50
2022-12-05T00:31:12.552Z,7.57
2022-12-05T00:33:40.099Z,6.43
2022-12-05T00:36:10.321Z,6.63
2022-12-05T00:38:37.118Z,7.32
2022-12-05T00:41:04.547Z,8.75
2022-12-05T00:43:31.266Z,7.88
2022-12-05T00:46:04.623Z,7.22
2022-12-05T00:48:32.230Z,6.85
2022-12-05T00:51:08.327Z,7.47
2022-12-05T00:53:35.191Z,6.63
2022-12-05T00:56:07.156Z,7.68
2022-12-05T00:58:34.253Z,8.15
2022-12-05T01:01:17.843Z,7.10
2022-12-05T01:03:46.185Z,5.03
2022-12-05T01:06:15.150Z,7.07
2022-12-05T01:08:42.413Z,5.05
2022-12-05T01:11:11.058Z,6.78
2022-12-05T01:13:37.791Z,5.15
2022-12-05T01:16:05.046Z,5.95
2022-12-05T01:18:32.067Z,5.60
2022-12-05T01:20:58.696Z,5.20
2022-12-05T01:23:25.565Z,4.93
2022-12-05T01:25:53.157Z,4.80
2022-12-05T01:28:20.516Z,4.00
2022-12-05T01:30:49.162Z,3.55
2022-12-05T01:33:16.217Z,4.10
2022-12-05T01:35:43.375Z,5.00
2022-12-05T01:38:12.299Z,4.72
2022-12-05T01:40:39.799Z,3.75
2022-12-05T01:43:15.024Z,5.00
2022-12-05T01:45:44.218Z,3.00
2022-12-05T01:48:21.214Z,3.70
2022-12-05T01:50:49.966Z,5.05
2022-12-05T01:53:17.859Z,3.78
2022-12-05T01:55:46.872Z,3.67
2022-12-05T01:58:14.134Z,3.30
2022-12-05T02:00:44.189Z,3.15
2022-12-05T02:03:19.500Z,2.50
2022-12-05T02:05:52.632Z,3.42
2022-12-05T02:08:20.093Z,4.90
2022-12-05T02:10:50.305Z,2.55
2022-12-05T02:13:44.768Z,4.13
2022-12-05T02:16:17.109Z,2.90
2022-12-05T02:19:22.335Z,3.08
2022-12-05T02:22:23.147Z,2.92
2022-12-05T02:25:12.014Z,3.80
2022-12-05T02:28:12.867Z,2.40
2022-12-05T02:30:57.279Z,1.90
2022-12-05T02:33:29.504Z,2.42
2022-12-05T02:36:44.751Z,3.72
2022-12-05T02:39:26.367Z,2.03
2022-12-05T02:42:06.799Z,1.90
2022-12-05T02:44:57.146Z,1.60
2022-12-05T02:47:30.264Z,2.28
2022-12-05T02:49:58.475Z,1.90
2022-12-05T02:52:26.284Z,2.45
2022-12-05T02:54:56.181Z,1.80
2022-12-05T02:57:24.695Z,2.10
2022-12-05T02:59:51.736Z,2.33
2022-12-05T03:02:31.685Z,2.15
2022-12-05T03:05:19.834Z,2.50
2022-12-05T03:07:50.628Z,2.00
2022-12-05T03:10:21.823Z,2.08
2022-12-05T03:12:58.062Z,2.38
2022-12-05T03:15:36.331Z,1.70
2022-12-05T03:18:34.248Z,2.08
2022-12-05T03:21:21.175Z,2.00
2022-12-05T03:23:53.044Z,3.65
2022-12-05T03:26:50.775Z,2.20
2022-12-05T03:29:24.751Z,2.95
2022-12-05T03:31:55.403Z,2.08
2022-12-05T03:34:42.305Z,2.05
2022-12-05T03:37:18.461Z,5.35
2022-12-05T03:39:49.831Z,2.30
2022-12-05T03:42:22.587Z,1.23
2022-12-05T03:44:54.861Z,2.20
2022-12-05T03:47:38.448Z,1.63
2022-12-05T03:50:15.887Z,1.38
2022-12-05T03:53:18.101Z,1.13
2022-12-05T03:55:38.399Z,0.70
2022-12-05T03:58:13.886Z,1.45
2022-12-05T04:00:45.128Z,0.88
2022-12-05T04:03:39.358Z,1.27
2022-12-05T04:06:14.699Z,1.17
2022-12-05T04:08:48.183Z,1.20
2022-12-05T04:11:19.904Z,1.08
2022-12-05T04:13:51.770Z,1.17
2022-12-05T04:16:48.415Z,1.67
2022-12-05T04:19:18.464Z,1.17
2022-12-05T04:21:52.440Z,0.77
2022-12-05T04:24:49.211Z,1.42
2022-12-05T04:27:47.167Z,0.75
2022-12-05T04:30:22.774Z,1.50
2022-12-05T04:32:56.719Z,1.00
2022-12-05T04:35:36.041Z,0.98
2022-12-05T04:38:08.826Z,3.70
2022-12-05T04:40:48.762Z,1.60
2022-12-05T04:43:18.612Z,1.23
2022-12-05T04:45:45.754Z,1.40
2022-12-05T04:48:16.143Z,0.93
2022-12-05T04:50:46.780Z,0.85
2022-12-05T04:53:16.386Z,3.28
2022-12-05T04:55:50.031Z,1.10
2022-12-05T04:58:25.364Z,0.70
2022-12-05T05:01:24.973Z,1.15
2022-12-05T05:03:58.294Z,1.23
2022-12-05T05:06:26.615Z,1.38
2022-12-05T05:08:55.616Z,1.13
2022-12-05T05:11:25.531Z,0.70
2022-12-05T05:13:53.135Z,0.88
2022-12-05T05:16:36.531Z,1.95
2022-12-05T05:19:05.216Z,1.10
2022-12-05T05:21:34.635Z,3.38
2022-12-05T05:24:01.765Z,1.48
2022-12-05T05:26:30.219Z,1.10
2022-12-05T05:28:57.863Z,1.13
2022-12-05T05:31:25.132Z,1.05
2022-12-05T05:33:53.565Z,2.45
2022-12-05T05:36:21.540Z,1.33
2022-12-05T05:38:51.681Z,0.77
2022-12-05T05:41:22.038Z,3.72
2022-12-05T05:43:49.809Z,0.90
2022-12-05T05:46:19.323Z,2.55
2022-12-05T05:48:46.246Z,1.40
2022-12-05T05:51:14.848Z,1.15
2022-12-05T05:53:42.296Z,1.98
2022-12-05T05:56:18.645Z,1.35
2022-12-05T05:58:47.823Z,4.25
2022-12-05T06:01:22.688Z,0.77
2022-12-05T06:03:50.895Z,0.80
2022-12-05T06:06:18.517Z,1.42
2022-12-05T06:08:45.769Z,0.95
2022-12-05T06:11:24.914Z,0.75
2022-12-05T06:13:55.002Z,1.13
2022-12-05T06:16:22.028Z,1.30
2022-12-05T06:18:49.899Z,1.02
2022-12-05T06:21:16.895Z,0.75
2022-12-05T06:23:43.663Z,2.35
2022-12-05T06:26:13.857Z,0.75
2022-12-05T06:28:41.193Z,1.30
2022-12-05T06:31:19.903Z,0.55
2022-12-05T06:33:47.315Z,1.60
2022-12-05T06:36:16.373Z,1.80
2022-12-05T06:38:43.673Z,2.15
2022-12-05T06:41:13.794Z,3.13
2022-12-05T06:43:40.592Z,3.60
2022-12-05T06:46:12.017Z,0.95
2022-12-05T06:48:39.210Z,0.70
2022-12-05T06:51:08.727Z,0.88
2022-12-05T06:53:35.319Z,0.63
2022-12-05T06:56:04.728Z,2.95
2022-12-05T06:58:31.818Z,1.02
2022-12-05T07:01:17.332Z,1.70
2022-12-05T07:03:44.258Z,0.82
2022-12-05T07:06:11.340Z,0.55
2022-12-05T07:08:38.259Z,0.95
2022-12-05T07:11:05.016Z,1.00
2022-12-05T07:13:31.866Z,1.20
2022-12-05T07:15:59.327Z,2.95
2022-12-05T07:18:26.956Z,0.60
2022-12-05T07:21:13.378Z,2.05
2022-12-05T07:23:42.217Z,0.95
2022-12-05T07:26:11.583Z,0.50
2022-12-05T07:28:38.241Z,0.75
2022-12-05T07:31:09.208Z,0.63
2022-12-05T07:33:37.163Z,5.90
2022-12-05T07:36:15.322Z,4.53
2022-12-05T07:38:42.336Z,4.70
2022-12-05T07:41:14.086Z,3.88
2022-12-05T07:43:42.228Z,1.73
2022-12-05T07:46:11.549Z,2.70
2022-12-05T07:48:38.953Z,1.13
2022-12-05T07:51:07.275Z,1.45
2022-12-05T07:53:34.602Z,1.90
2022-12-05T07:56:02.918Z,1.08
2022-12-05T07:58:30.691Z,1.23
2022-12-05T08:00:58.910Z,0.88
2022-12-05T08:03:25.720Z,1.40
2022-12-05T08:05:52.434Z,3.03
2022-12-05T08:08:19.165Z,2.88
2022-12-05T08:10:45.827Z,1.30
2022-12-05T08:13:12.508Z,1.40
2022-12-05T08:15:39.102Z,2.90
2022-12-05T08:18:06.055Z,3.70
2022-12-05T08:20:32.817Z,2.28
2022-12-05T08:22:59.498Z,3.65
2022-12-05T08:25:26.177Z,1.95
2022-12-05T08:27:52.854Z,2.05
2022-12-05T08:30:19.714Z,1.23
2022-12-05T08:32:46.558Z,1.40
2022-12-05T08:35:13.230Z,1.55
2022-12-05T08:37:40.108Z,2.00
2022-12-05T08:40:07.470Z,1.65
2022-12-05T08:42:34.196Z,2.13
2022-12-05T08:45:01.029Z,1.60
2022-12-05T08:47:27.770Z,1.20
2022-12-05T08:49:54.387Z,1.55
2022-12-05T08:52:22.805Z,1.75
2022-12-05T08:54:49.348Z,1.00
2022-12-05T08:57:16.060Z,1.63
2022-12-05T08:59:42.634Z,1.38
2022-12-05T09:02:11.153Z,2.00
2022-12-05T09:04:37.857Z,2.03
2022-12-05T09:07:04.537Z,1.92
2022-12-05T09:09:32.600Z,2.75
2022-12-05T09:12:00.308Z,1.98
2022-12-05T09:14:32.766Z,1.38
2022-12-05T09:17:00.994Z,1.95
2022-12-05T09:19:28.616Z,1.63
2022-12-05T09:21:56.156Z,1.55
2022-12-05T09:24:23.046Z,1.38
2022-12-05T09:26:50.185Z,1.33
2022-12-05T09:29:17.953Z,0.90
2022-12-05T09:31:47.092Z,1.20
2022-12-05T09:34:14.950Z,1.40
2022-12-05T09:36:42.383Z,1.90
2022-12-05T09:39:10.832Z,2.83
2022-12-05T09:42:18.586Z,5.60
2022-12-05T09:45:04.120Z,2.95
2022-12-05T09:47:45.520Z,2.53
2022-12-05T09:50:21.240Z,1.98
2022-12-05T09:53:09.460Z,0.73
2022-12-05T09:55:59.372Z,1.35
2022-12-05T09:58:51.069Z,0.80
2022-12-05T10:01:20.639Z,1.92
2022-12-05T10:04:02.892Z,2.05
2022-12-05T10:06:40.518Z,2.25
2022-12-05T10:09:14.679Z,1.70
2022-12-05T10:12:03.258Z,1.60
2022-12-05T10:14:58.024Z,2.67
2022-12-05T10:17:34.745Z,1.33
2022-12-05T10:20:15.612Z,1.25
2022-12-05T10:23:06.061Z,0.60
2022-12-05T10:25:34.628Z,1.63
2022-12-05T10:28:09.966Z,0.90
2022-12-05T10:30:39.457Z,1.35
2022-12-05T10:33:18.834Z,1.02
2022-12-05T10:35:45.502Z,1.40
2022-12-05T10:38:28.791Z,1.35
2022-12-05T10:41:03.878Z,3.28
2022-12-05T10:43:32.915Z,1.15
2022-12-05T10:46:01.141Z,2.15
2022-12-05T10:48:31.419Z,1.75
2022-12-05T10:50:58.618Z,3.00
2022-12-05T10:53:39.416Z,2.40
2022-12-05T10:56:47.990Z,1.33
2022-12-05T10:59:19.322Z,2.22
2022-12-05T11:01:56.239Z,1.40
2022-12-05T11:04:43.332Z,1.50
2022-12-05T11:07:24.669Z,2.22
2022-12-05T11:09:51.944Z,4.57
2022-12-05T11:12:29.177Z,4.68
2022-12-05T11:15:22.380Z,1.70
2022-12-05T11:17:50.332Z,1.27
2022-12-05T11:20:19.981Z,2.35
2022-12-05T11:22:49.651Z,1.67
2022-12-05T11:25:28.299Z,1.20
2022-12-05T11:28:01.026Z,3.45
2022-12-05T11:30:29.337Z,2.42
2022-12-05T11:33:32.925Z,1.40
2022-12-05T11:36:22.196Z,1.52
2022-12-05T11:38:49.681Z,1.50
2022-12-05T11:41:45.754Z,5.25
2022-12-05T11:44:39.408Z,5.13
2022-12-05T11:47:32.374Z,3.72
2022-12-05T11:50:04.944Z,6.60
2022-12-05T11:53:08.970Z,6.05
2022-12-05T11:55:43.574Z,4.38
2022-12-05T11:58:31.655Z,1.98
2022-12-05T12:01:10.522Z,3.05
2022-12-05T12:04:14.171Z,3.42
2022-12-05T12:07:04.626Z,4.45
2022-12-05T12:09:47.898Z,4.28
2022-12-05T12:12:28.666Z,4.85
2022-12-05T12:15:01.539Z,3.45
2022-12-05T12:18:04.841Z,3.50
2022-12-05T12:20:43.434Z,3.65
2022-12-05T12:23:23.109Z,6.43
2022-12-05T12:26:09.448Z,2.90
2022-12-05T12:29:23.690Z,3.72
2022-12-05T12:32:01.886Z,4.03
2022-12-05T12:34:34.349Z,3.80
2022-12-05T12:37:14.182Z,4.38
2022-12-05T12:40:18.511Z,2.53
2022-12-05T12:43:21.117Z,2.72
2022-12-05T12:46:35.111Z,2.95
2022-12-05T12:49:22.858Z,2.58
2022-12-05T12:52:03.417Z,3.63
2022-12-05T12:55:02.707Z,4.47
2022-12-05T12:58:02.350Z,6.25
2022-12-05T13:00:31.757Z,4.40
2022-12-05T13:03:24.893Z,2.65
2022-12-05T13:06:03.561Z,4.38
2022-12-05T13:08:35.774Z,3.17
2022-12-05T13:11:07.227Z,3.13
2022-12-05T13:13:40.496Z,4.32
2022-12-05T13:16:08.503Z,4.07
2022-12-05T13:18:36.214Z,2.35
2022-12-05T13:21:09.982Z,3.83
2022-12-05T13:23:46.053Z,2.88
2022-12-05T13:26:14.250Z,2.22
2022-12-05T13:28:49.884Z,3.08
2022-12-05T13:31:19.340Z,3.78
2022-12-05T13:33:47.569Z,2.83
2022-12-05T13:36:59.244Z,2.72
2022-12-05T13:39:44.916Z,1.33
2022-12-05T13:42:29.236Z,2.90
2022-12-05T13:45:08.489Z,1.80
2022-12-05T13:48:00.115Z,2.85
2022-12-05T13:50:41.333Z,5.00
2022-12-05T13:53:24.892Z,2.50
2022-12-05T13:56:04.355Z,3.90
2022-12-05T13:58:30.935Z,2.47
2022-12-05T14:01:40.820Z,2.88
2022-12-05T14:04:48.151Z,4.25
2022-12-05T14:07:42.549Z,5.90
2022-12-05T14:10:30.839Z,2.35
2022-12-05T14:13:16.011Z,3.05
2022-12-05T14:15:45.988Z,2.83
2022-12-05T14:18:41.792Z,2.60
2022-12-05T14:21:18.559Z,2.35
2022-12-05T14:24:06.956Z,3.63
2022-12-05T14:26:41.467Z,2.20
2022-12-05T14:29:32.987Z,1.83
2022-12-05T14:32:28.191Z,2.05
2022-12-05T14:35:00.882Z,4.05
2022-12-05T14:37:56.113Z,4.50
2022-12-05T14:40:44.367Z,4.15
2022-12-05T14:43:33.415Z,3.20
2022-12-05T14:46:06.537Z,2.63
2022-12-05T14:48:36.588Z,2.33
2022-12-05T14:51:34.995Z,4.55
2022-12-05T14:54:10.482Z,5.53
2022-12-05T14:56:52.489Z,5.15
2022-12-05T14:59:32.119Z,5.93
2022-12-05T15:02:01.819Z,4.68
2022-12-05T15:04:44.343Z,4.20
2022-12-05T15:07:19.220Z,4.57
2022-12-05T15:09:57.382Z,5.10
2022-12-05T15:12:33.066Z,4.95
2022-12-05T15:15:07.918Z,6.38
2022-12-05T15:17:41.142Z,4.63
2022-12-05T15:20:26.751Z,3.40
2022-12-05T15:22:54.072Z,2.13
2022-12-05T15:25:38.988Z,2.63
2022-12-05T15:28:19.185Z,2.83
2022-12-05T15:30:55.725Z,3.00
2022-12-05T15:33:25.146Z,5.20
2022-12-05T15:35:55.197Z,3.20
2022-12-05T15:38:32.861Z,4.65
2022-12-05T15:40:59.551Z,1.88
2022-12-05T15:43:32.539Z,2.25
2022-12-05T15:46:25.996Z,4.82
2022-12-05T15:48:54.415Z,3.20
2022-12-05T15:51:26.464Z,3.97
2022-12-05T15:54:06.084Z,5.57
2022-12-05T15:56:41.987Z,9.30
2022-12-05T15:59:23.616Z,11.82
2022-12-05T16:01:54.658Z,10.70
2022-12-05T16:04:39.915Z,10.73
2022-12-05T16:07:10.106Z,5.07
2022-12-05T16:09:42.052Z,6.32
2022-12-05T16:12:17.248Z,7.28
2022-12-05T16:15:00.463Z,6.75
2022-12-05T16:17:37.673Z,8.50
2022-12-05T16:20:20.271Z,3.10
2022-12-05T16:22:52.918Z,3.70
2022-12-05T16:25:26.604Z,3.92
2022-12-05T16:28:02.812Z,3.15
2022-12-05T16:30:31.162Z,4.45
2022-12-05T16:33:04.781Z,3.67
2022-12-05T16:35:42.160Z,6.13
2022-12-05T16:38:32.224Z,7.53
2022-12-05T16:41:00.430Z,5.38
2022-12-05T16:43:30.255Z,4.43
2022-12-05T16:45:59.154Z,7.72
2022-12-05T16:48:30.768Z,5.22
2022-12-05T16:51:15.708Z,3.08
2022-12-05T16:53:53.493Z,5.22
2022-12-05T16:56:24.961Z,4.45
2022-12-05T16:58:51.973Z,4.47
2022-12-05T17:01:22.499Z,7.07
2022-12-05T17:03:49.438Z,4.93
2022-12-05T17:06:18.299Z,7.25
2022-12-05T17:08:45.020Z,12.05
2022-12-05T17:11:19.590Z,14.65
2022-12-05T17:13:48.381Z,15.83
2022-12-05T17:16:17.349Z,10.30
2022-12-05T17:18:44.874Z,15.90
2022-12-05T17:21:21.283Z,12.57
2022-12-05T17:23:48.720Z,20.13
2022-12-05T17:26:18.996Z,26.05
2022-12-05T17:28:46.319Z,16.00
2022-12-05T17:31:16.793Z,14.90
2022-12-05T17:33:44.629Z,11.23
2022-12-05T17:36:11.802Z,18.75
2022-12-05T17:38:38.760Z,15.30
2022-12-05T17:41:07.442Z,19.50
2022-12-05T17:43:34.740Z,11.93
2022-12-05T17:46:02.507Z,12.38
2022-12-05T17:48:29.683Z,21.15
2022-12-05T17:50:59.355Z,19.88
2022-12-05T17:53:26.075Z,16.95
2022-12-05T17:55:52.973Z,9.90
2022-12-05T17:58:19.844Z,9.38
2022-12-05T18:00:47.361Z,7.05
2022-12-05T18:03:16.659Z,7.95
2022-12-05T18:05:44.634Z,9.80
2022-12-05T18:08:12.341Z,7.82
2022-12-05T18:10:44.067Z,11.60
2022-12-05T18:13:11.718Z,8.40
2022-12-05T18:15:42.984Z,9.45
2022-12-05T18:18:17.662Z,10.45
2022-12-05T18:20:44.697Z,10.50
2022-12-05T18:23:11.837Z,8.50
2022-12-05T18:25:39.750Z,27.13
2022-12-05T18:28:06.787Z,19.50
2022-12-05T18:30:33.625Z,21.02
2022-12-05T18:33:00.411Z,39.42
2022-12-05T18:35:42.683Z,36.47
2022-12-05T18:38:12.947Z,31.25
2022-12-05T18:40:39.865Z,26.45
2022-12-05T18:43:10.871Z,19.88
2022-12-05T18:45:38.277Z,17.38
2022-12-05T18:48:23.284Z,104.63
2022-12-05T18:50:52.736Z,49.05
2022-12-05T18:53:19.373Z,66.78
2022-12-05T18:56:05.144Z,43.30
2022-12-05T18:58:33.690Z,29.02
2022-12-05T19:01:12.088Z,16.50
2022-12-05T19:03:39.849Z,10.60
2022-12-05T19:06:21.110Z,11.65
2022-12-05T19:08:48.347Z,12.40
2022-12-05T19:11:16.878Z,11.52
2022-12-05T19:13:43.789Z,24.63
2022-12-05T19:16:16.984Z,12.75
2022-12-05T19:18:44.738Z,16.42
2022-12-05T19:21:11.867Z,15.15
2022-12-05T19:23:39.366Z,12.63
2022-12-05T19:26:08.169Z,13.65
2022-12-05T19:28:36.699Z,9.68
2022-12-05T19:31:11.893Z,11.77
2022-12-05T19:33:43.548Z,14.70
2022-12-05T19:36:15.437Z,10.00
2022-12-05T19:38:44.026Z,9.95
2022-12-05T19:41:13.531Z,14.80
2022-12-05T19:43:43.015Z,8.90
2022-12-05T19:46:20.431Z,7.97
2022-12-05T19:48:48.016Z,9.73
2022-12-05T19:51:14.810Z,7.13
2022-12-05T19:53:42.636Z,8.88
2022-12-05T19:56:15.458Z,13.15
2022-12-05T19:58:42.675Z,23.25
2022-12-05T20:01:18.430Z,11.48
2022-12-05T20:03:53.853Z,11.07
2022-12-05T20:06:21.252Z,15.07
2022-12-05T20:08:48.745Z,20.35
2022-12-05T20:11:18.099Z,13.95
2022-12-05T20:13:46.919Z,11.48
2022-12-05T20:16:16.595Z,5.97
2022-12-05T20:18:43.324Z,4.97
2022-12-05T20:21:12.871Z,6.57
2022-12-05T20:23:39.747Z,3.67
2022-12-05T20:26:10.743Z,5.85
2022-12-05T20:28:38.156Z,5.88
2022-12-05T20:31:35.445Z,7.00
2022-12-05T20:34:03.239Z,8.70
2022-12-05T20:36:32.351Z,6.05
2022-12-05T20:39:05.387Z,5.20
2022-12-05T20:41:32.396Z,7.03
2022-12-05T20:44:01.875Z,5.07
2022-12-05T20:46:29.223Z,8.27
2022-12-05T20:48:58.999Z,6.70
2022-12-05T20:51:28.787Z,6.55
2022-12-05T20:53:56.769Z,5.47
2022-12-05T20:56:25.803Z,5.40
2022-12-05T20:58:55.994Z,7.95
2022-12-05T21:01:24.623Z,6.70
2022-12-05T21:03:52.669Z,9.13
2022-12-05T21:06:23.280Z,13.63
2022-12-05T21:08:51.258Z,20.13
2022-12-05T21:11:18.368Z,11.70
2022-12-05T21:13:45.553Z,6.88
2022-12-05T21:16:14.834Z,10.32
2022-12-05T21:18:41.812Z,10.18
2022-12-05T21:21:20.809Z,7.40
2022-12-05T21:23:52.257Z,6.13
2022-12-05T21:26:19.494Z,7.15
2022-12-05T21:28:46.475Z,3.65
2022-12-05T21:31:20.201Z,4.95
2022-12-05T21:33:55.147Z,5.10
2022-12-05T21:36:23.389Z,4.85
2022-12-05T21:38:55.713Z,4.65
2022-12-05T21:41:25.053Z,5.22
2022-12-05T21:43:54.983Z,5.65
2022-12-05T21:46:23.007Z,4.55
2022-12-05T21:48:49.872Z,14.77
2022-12-05T21:51:17.313Z,5.38
2022-12-05T21:53:44.305Z,4.50
2022-12-05T21:56:15.581Z,4.10
2022-12-05T21:58:44.297Z,5.13
2022-12-05T22:01:12.681Z,4.50
2022-12-05T22:03:40.000Z,3.25
2022-12-05T22:06:09.424Z,3.70
2022-12-05T22:08:37.841Z,2.80
2022-12-05T22:11:04.482Z,3.47
2022-12-05T22:13:32.288Z,3.45
2022-12-05T22:15:59.858Z,3.40
2022-12-05T22:18:27.121Z,4.00
2022-12-05T22:21:04.788Z,3.30
2022-12-05T22:23:33.262Z,3.80
2022-12-05T22:26:02.200Z,4.28
2022-12-05T22:28:29.990Z,3.00
2022-12-05T22:30:58.994Z,2.53
2022-12-05T22:33:26.767Z,2.92
2022-12-05T22:35:58.707Z,3.60
2022-12-05T22:38:36.754Z,2.20
2022-12-05T22:41:09.021Z,2.47
2022-12-05T22:43:37.792Z,2.13
2022-12-05T22:46:05.660Z,2.17
2022-12-05T22:48:32.529Z,2.25
2022-12-05T22:50:59.383Z,2.33
2022-12-05T22:53:26.216Z,2.40
2022-12-05T22:55:53.050Z,2.40
2022-12-05T22:58:20.151Z,3.22
2022-12-05T23:00:46.997Z,3.25
2022-12-05T23:03:15.254Z,3.67
2022-12-05T23:05:43.348Z,1.95
2022-12-05T23:08:11.369Z,3.13
2022-12-05T23:10:39.240Z,3.60
2022-12-05T23:13:07.421Z,2.65
2022-12-05T23:15:36.870Z,3.38
2022-12-05T23:18:03.772Z,2.30
2022-12-05T23:20:30.408Z,2.10
2022-12-05T23:22:57.397Z,5.50
2022-12-05T23:25:24.074Z,2.97
2022-12-05T23:27:50.775Z,2.10
2022-12-05T23:30:17.498Z,1.67
2022-12-05T23:32:44.351Z,2.30
2022-12-05T23:35:11.734Z,3.88
2022-12-05T23:37:39.633Z,2.65
2022-12-05T23:40:06.803Z,2.30
2022-12-05T23:42:33.737Z,4.38
2022-12-05T23:45:00.350Z,1.95
2022-12-05T23:47:27.032Z,3.50
2022-12-05T23:49:53.570Z,2.47
2022-12-05T23:52:20.193Z,2.42
2022-12-05T23:54:46.915Z,2.17
2022-12-05T23:57:17.528Z,2.58
2022-12-05T23:59:45.105Z,6.18
